sensor_id;sensor_type;location;lat;lon;timestamp;temperature;humidity
30134;DHT22;16946;49.984;10.672;2023-02-27T00:00:19;-2.00;99.90
30134;DHT22;16946;49.984;10.672;2023-02-27T00:00:50;-2.00;99.90
30134;DHT22;16946;49.984;10.672;2023-02-27T00:01:21;-2.00;99.90
30134;DHT22;16946;49.984;10.672;2023-02-27T00:01:51;-2.00;99.90
30134;DHT22;16946;49.984;10.672;2023-02-27T00:02:22;-2.10;99.90
30134;DHT22;16946;49.984;10.672;2023-02-27T00:02:53;-2.10;99.90
30134;DHT22;16946;49.984;10.672;2023-02-27T00:03:23;-2.10;99.90
30134;DHT22;16946;49.984;10.672;2023-02-27T00:03:54;-2.10;99.90
30134;DHT22;16946;49.984;10.672;2023-02-27T00:04:24;-2.00;99.90
30134;DHT22;16946;49.984;10.672;2023-02-27T00:04:55;-2.00;99.90
30134;DHT22;16946;49.984;10.672;2023-02-27T00:05:27;-2.00;99.90
30134;DHT22;16946;49.984;10.672;2023-02-27T00:05:57;-1.90;99.90
30134;DHT22;16946;49.984;10.672;2023-02-27T00:06:28;-1.90;99.90
30134;DHT22;16946;49.984;10.672;2023-02-27T00:06:58;-1.90;99.90
30134;DHT22;16946;49.984;10.672;2023-02-27T00:07:29;-2.00;99.90
30134;DHT22;16946;49.984;10.672;2023-02-27T00:07:59;-2.00;99.90
30134;DHT22;16946;49.984;10.672;2023-02-27T00:08:30;-2.00;99.90
30134;DHT22;16946;49.984;10.672;2023-02-27T00:09:02;-2.00;99.90
30134;DHT22;16946;49.984;10.672;2023-02-27T00:09:33;-2.10;99.90
30134;DHT22;16946;49.984;10.672;2023-02-27T00:10:05;-2.10;99.90
30134;DHT22;16946;49.984;10.672;2023-02-27T00:10:36;-2.10;99.90
30134;DHT22;16946;49.984;10.672;2023-02-27T00:11:07;-2.10;99.90
30134;DHT22;16946;49.984;10.672;2023-02-27T00:11:37;-2.10;99.90
30134;DHT22;16946;49.984;10.672;2023-02-27T00:12:09;-2.10;99.90
30134;DHT22;16946;49.984;10.672;2023-02-27T00:12:41;-2.20;99.90
30134;DHT22;16946;49.984;10.672;2023-02-27T00:13:11;-2.20;99.90
30134;DHT22;16946;49.984;10.672;2023-02-27T00:13:42;-2.30;99.90
30134;DHT22;16946;49.984;10.672;2023-02-27T00:14:12;-2.30;99.90
30134;DHT22;16946;49.984;10.672;2023-02-27T00:14:43;-2.30;99.90
30134;DHT22;16946;49.984;10.672;2023-02-27T00:15:17;-2.30;99.90
30134;DHT22;16946;49.984;10.672;2023-02-27T00:15:48;-2.30;99.90
30134;DHT22;16946;49.984;10.672;2023-02-27T00:16:21;-2.30;99.90
30134;DHT22;16946;49.984;10.672;2023-02-27T00:16:52;-2.30;99.90
30134;DHT22;16946;49.984;10.672;2023-02-27T00:17:22;-2.30;99.90
30134;DHT22;16946;49.984;10.672;2023-02-27T00:17:58;-2.30;99.90
30134;DHT22;16946;49.984;10.672;2023-02-27T00:18:28;-2.30;99.90
30134;DHT22;16946;49.984;10.672;2023-02-27T00:18:59;-2.30;99.90
30134;DHT22;16946;49.984;10.672;2023-02-27T00:19:31;-2.30;99.90
30134;DHT22;16946;49.984;10.672;2023-02-27T00:20:03;-2.30;99.90
30134;DHT22;16946;49.984;10.672;2023-02-27T00:20:34;-2.30;99.90
30134;DHT22;16946;49.984;10.672;2023-02-27T00:21:07;-2.30;99.90
30134;DHT22;16946;49.984;10.672;2023-02-27T00:21:38;-2.30;99.90
30134;DHT22;16946;49.984;10.672;2023-02-27T00:22:08;-2.30;99.90
30134;DHT22;16946;49.984;10.672;2023-02-27T00:22:40;-2.30;99.90
30134;DHT22;16946;49.984;10.672;2023-02-27T00:23:10;-2.30;99.90
30134;DHT22;16946;49.984;10.672;2023-02-27T00:23:41;-2.30;99.90
30134;DHT22;16946;49.984;10.672;2023-02-27T00:24:12;-2.40;99.90
30134;DHT22;16946;49.984;10.672;2023-02-27T00:24:42;-2.40;99.90
30134;DHT22;16946;49.984;10.672;2023-02-27T00:25:14;-2.40;99.90
30134;DHT22;16946;49.984;10.672;2023-02-27T00:25:44;-2.40;99.90
30134;DHT22;16946;49.984;10.672;2023-02-27T00:26:15;-2.40;99.90
30134;DHT22;16946;49.984;10.672;2023-02-27T00:26:45;-2.40;99.90
30134;DHT22;16946;49.984;10.672;2023-02-27T00:27:16;-2.40;99.90
30134;DHT22;16946;49.984;10.672;2023-02-27T00:27:46;-2.40;99.90
30134;DHT22;16946;49.984;10.672;2023-02-27T00:28:17;-2.40;99.90
30134;DHT22;16946;49.984;10.672;2023-02-27T00:28:48;-2.30;99.90
30134;DHT22;16946;49.984;10.672;2023-02-27T00:29:18;-2.40;99.90
30134;DHT22;16946;49.984;10.672;2023-02-27T00:29:49;-2.30;99.90
30134;DHT22;16946;49.984;10.672;2023-02-27T00:30:19;-2.30;99.90
30134;DHT22;16946;49.984;10.672;2023-02-27T00:30:50;-2.40;99.90
30134;DHT22;16946;49.984;10.672;2023-02-27T00:31:20;-2.40;99.90
30134;DHT22;16946;49.984;10.672;2023-02-27T00:31:51;-2.40;99.90
30134;DHT22;16946;49.984;10.672;2023-02-27T00:32:21;-2.40;99.90
30134;DHT22;16946;49.984;10.672;2023-02-27T00:32:53;-2.40;99.90
30134;DHT22;16946;49.984;10.672;2023-02-27T00:33:23;-2.50;99.90
30134;DHT22;16946;49.984;10.672;2023-02-27T00:33:54;-2.50;99.90
30134;DHT22;16946;49.984;10.672;2023-02-27T00:34:25;-2.50;99.90
30134;DHT22;16946;49.984;10.672;2023-02-27T00:34:55;-2.50;99.90
30134;DHT22;16946;49.984;10.672;2023-02-27T00:35:26;-2.50;99.90
30134;DHT22;16946;49.984;10.672;2023-02-27T00:35:58;-2.50;99.90
30134;DHT22;16946;49.984;10.672;2023-02-27T00:36:28;-2.50;99.90
30134;DHT22;16946;49.984;10.672;2023-02-27T00:36:59;-2.50;99.90
30134;DHT22;16946;49.984;10.672;2023-02-27T00:37:30;-2.50;99.90
30134;DHT22;16946;49.984;10.672;2023-02-27T00:38:00;-2.50;99.90
30134;DHT22;16946;49.984;10.672;2023-02-27T00:38:31;-2.50;99.90
30134;DHT22;16946;49.984;10.672;2023-02-27T00:39:02;-2.50;99.90
30134;DHT22;16946;49.984;10.672;2023-02-27T00:39:32;-2.50;99.90
30134;DHT22;16946;49.984;10.672;2023-02-27T00:40:03;-2.50;99.90
30134;DHT22;16946;49.984;10.672;2023-02-27T00:40:34;-2.50;99.90
30134;DHT22;16946;49.984;10.672;2023-02-27T00:41:05;-2.40;99.90
30134;DHT22;16946;49.984;10.672;2023-02-27T00:41:35;-2.30;99.90
30134;DHT22;16946;49.984;10.672;2023-02-27T00:42:06;-2.30;99.90
30134;DHT22;16946;49.984;10.672;2023-02-27T00:42:37;-2.40;99.90
30134;DHT22;16946;49.984;10.672;2023-02-27T00:43:07;-2.40;99.90
30134;DHT22;16946;49.984;10.672;2023-02-27T00:43:38;-2.40;99.90
30134;DHT22;16946;49.984;10.672;2023-02-27T00:44:08;-2.40;99.90
30134;DHT22;16946;49.984;10.672;2023-02-27T00:44:39;-2.40;99.90
30134;DHT22;16946;49.984;10.672;2023-02-27T00:45:10;-2.40;99.90
30134;DHT22;16946;49.984;10.672;2023-02-27T00:45:41;-2.40;99.90
30134;DHT22;16946;49.984;10.672;2023-02-27T00:46:11;-2.50;99.90
30134;DHT22;16946;49.984;10.672;2023-02-27T00:46:42;-2.40;99.90
30134;DHT22;16946;49.984;10.672;2023-02-27T00:47:13;-2.40;99.90
30134;DHT22;16946;49.984;10.672;2023-02-27T00:47:43;-2.40;99.90
30134;DHT22;16946;49.984;10.672;2023-02-27T00:48:15;-2.40;99.90
30134;DHT22;16946;49.984;10.672;2023-02-27T00:48:45;-2.40;99.90
30134;DHT22;16946;49.984;10.672;2023-02-27T00:49:16;-2.40;99.90
30134;DHT22;16946;49.984;10.672;2023-02-27T00:49:46;-2.40;99.90
30134;DHT22;16946;49.984;10.672;2023-02-27T00:50:17;-2.40;99.90
30134;DHT22;16946;49.984;10.672;2023-02-27T00:50:49;-2.40;99.90
30134;DHT22;16946;49.984;10.672;2023-02-27T00:51:19;-2.50;99.90
30134;DHT22;16946;49.984;10.672;2023-02-27T00:51:51;-2.50;99.90
30134;DHT22;16946;49.984;10.672;2023-02-27T00:52:22;-2.40;99.90
30134;DHT22;16946;49.984;10.672;2023-02-27T00:52:52;-2.50;99.90
30134;DHT22;16946;49.984;10.672;2023-02-27T00:53:23;-2.50;99.90
30134;DHT22;16946;49.984;10.672;2023-02-27T00:53:53;-2.50;99.90
30134;DHT22;16946;49.984;10.672;2023-02-27T00:54:24;-2.50;99.90
30134;DHT22;16946;49.984;10.672;2023-02-27T00:54:55;-2.50;99.90
30134;DHT22;16946;49.984;10.672;2023-02-27T00:55:25;-2.50;99.90
30134;DHT22;16946;49.984;10.672;2023-02-27T00:55:56;-2.50;99.90
30134;DHT22;16946;49.984;10.672;2023-02-27T00:56:26;-2.60;99.90
30134;DHT22;16946;49.984;10.672;2023-02-27T00:56:57;-2.50;99.90
30134;DHT22;16946;49.984;10.672;2023-02-27T00:57:27;-2.60;99.90
30134;DHT22;16946;49.984;10.672;2023-02-27T00:57:58;-2.60;99.90
30134;DHT22;16946;49.984;10.672;2023-02-27T00:58:29;-2.50;99.90
30134;DHT22;16946;49.984;10.672;2023-02-27T00:58:59;-2.60;99.90
30134;DHT22;16946;49.984;10.672;2023-02-27T00:59:30;-2.60;99.90
30134;DHT22;16946;49.984;10.672;2023-02-27T01:00:00;-2.60;99.90
30134;DHT22;16946;49.984;10.672;2023-02-27T01:00:31;-2.60;99.90
30134;DHT22;16946;49.984;10.672;2023-02-27T01:01:01;-2.60;99.90
30134;DHT22;16946;49.984;10.672;2023-02-27T01:01:32;-2.60;99.90
30134;DHT22;16946;49.984;10.672;2023-02-27T01:02:02;-2.60;99.90
30134;DHT22;16946;49.984;10.672;2023-02-27T01:02:33;-2.70;99.90
30134;DHT22;16946;49.984;10.672;2023-02-27T01:03:03;-2.70;99.90
30134;DHT22;16946;49.984;10.672;2023-02-27T01:03:34;-2.70;99.90
30134;DHT22;16946;49.984;10.672;2023-02-27T01:04:04;-2.70;99.90
30134;DHT22;16946;49.984;10.672;2023-02-27T01:04:35;-2.60;99.90
30134;DHT22;16946;49.984;10.672;2023-02-27T01:05:06;-2.70;99.90
30134;DHT22;16946;49.984;10.672;2023-02-27T01:05:37;-2.60;99.90
30134;DHT22;16946;49.984;10.672;2023-02-27T01:06:07;-2.60;99.90
30134;DHT22;16946;49.984;10.672;2023-02-27T01:06:38;-2.60;99.90
30134;DHT22;16946;49.984;10.672;2023-02-27T01:07:09;-2.60;99.90
30134;DHT22;16946;49.984;10.672;2023-02-27T01:07:39;-2.60;99.90
30134;DHT22;16946;49.984;10.672;2023-02-27T01:08:10;-2.60;99.90
30134;DHT22;16946;49.984;10.672;2023-02-27T01:08:40;-2.60;99.90
30134;DHT22;16946;49.984;10.672;2023-02-27T01:09:11;-2.60;99.90
30134;DHT22;16946;49.984;10.672;2023-02-27T01:09:42;-2.60;99.90
30134;DHT22;16946;49.984;10.672;2023-02-27T01:10:12;-2.60;99.90
30134;DHT22;16946;49.984;10.672;2023-02-27T01:10:43;-2.50;99.90
30134;DHT22;16946;49.984;10.672;2023-02-27T01:11:13;-2.50;99.90
30134;DHT22;16946;49.984;10.672;2023-02-27T01:11:44;-2.50;99.90
30134;DHT22;16946;49.984;10.672;2023-02-27T01:12:14;-2.40;99.90
30134;DHT22;16946;49.984;10.672;2023-02-27T01:12:45;-2.40;99.90
30134;DHT22;16946;49.984;10.672;2023-02-27T01:13:15;-2.40;99.90
30134;DHT22;16946;49.984;10.672;2023-02-27T01:13:46;-2.40;99.90
30134;DHT22;16946;49.984;10.672;2023-02-27T01:14:17;-2.40;99.90
30134;DHT22;16946;49.984;10.672;2023-02-27T01:14:48;-2.40;99.90
30134;DHT22;16946;49.984;10.672;2023-02-27T01:15:18;-2.40;99.90
30134;DHT22;16946;49.984;10.672;2023-02-27T01:15:50;-2.30;99.90
30134;DHT22;16946;49.984;10.672;2023-02-27T01:16:20;-2.30;99.90
30134;DHT22;16946;49.984;10.672;2023-02-27T01:16:51;-2.20;99.90
30134;DHT22;16946;49.984;10.672;2023-02-27T01:17:22;-2.30;99.90
30134;DHT22;16946;49.984;10.672;2023-02-27T01:17:52;-2.30;99.90
30134;DHT22;16946;49.984;10.672;2023-02-27T01:18:23;-2.30;99.90
30134;DHT22;16946;49.984;10.672;2023-02-27T01:18:53;-2.30;99.90
30134;DHT22;16946;49.984;10.672;2023-02-27T01:19:24;-2.30;99.90
30134;DHT22;16946;49.984;10.672;2023-02-27T01:19:55;-2.40;99.90
30134;DHT22;16946;49.984;10.672;2023-02-27T01:20:25;-2.40;99.90
30134;DHT22;16946;49.984;10.672;2023-02-27T01:20:56;-2.40;99.90
30134;DHT22;16946;49.984;10.672;2023-02-27T01:21:26;-2.40;99.90
30134;DHT22;16946;49.984;10.672;2023-02-27T01:21:57;-2.40;99.90
30134;DHT22;16946;49.984;10.672;2023-02-27T01:22:28;-2.40;99.90
30134;DHT22;16946;49.984;10.672;2023-02-27T01:22:58;-2.40;99.90
30134;DHT22;16946;49.984;10.672;2023-02-27T01:23:29;-2.40;99.90
30134;DHT22;16946;49.984;10.672;2023-02-27T01:24:00;-2.40;99.90
30134;DHT22;16946;49.984;10.672;2023-02-27T01:24:31;-2.40;99.90
30134;DHT22;16946;49.984;10.672;2023-02-27T01:25:02;-2.30;99.90
30134;DHT22;16946;49.984;10.672;2023-02-27T01:25:32;-2.30;99.90
30134;DHT22;16946;49.984;10.672;2023-02-27T01:26:04;-2.20;99.90
30134;DHT22;16946;49.984;10.672;2023-02-27T01:26:34;-2.20;99.90
30134;DHT22;16946;49.984;10.672;2023-02-27T01:27:05;-2.10;99.90
30134;DHT22;16946;49.984;10.672;2023-02-27T01:27:35;-2.10;99.90
30134;DHT22;16946;49.984;10.672;2023-02-27T01:28:06;-2.10;99.90
30134;DHT22;16946;49.984;10.672;2023-02-27T01:28:36;-2.10;99.90
30134;DHT22;16946;49.984;10.672;2023-02-27T01:29:07;-2.10;99.90
30134;DHT22;16946;49.984;10.672;2023-02-27T01:29:38;-2.20;99.90
30134;DHT22;16946;49.984;10.672;2023-02-27T01:30:09;-2.20;99.90
30134;DHT22;16946;49.984;10.672;2023-02-27T01:30:41;-2.30;99.90
30134;DHT22;16946;49.984;10.672;2023-02-27T01:31:12;-2.30;99.90
30134;DHT22;16946;49.984;10.672;2023-02-27T01:31:43;-2.30;99.90
30134;DHT22;16946;49.984;10.672;2023-02-27T01:32:13;-2.30;99.90
30134;DHT22;16946;49.984;10.672;2023-02-27T01:32:44;-2.30;99.90
30134;DHT22;16946;49.984;10.672;2023-02-27T01:33:14;-2.30;99.90
30134;DHT22;16946;49.984;10.672;2023-02-27T01:33:45;-2.30;99.90
30134;DHT22;16946;49.984;10.672;2023-02-27T01:34:18;-2.30;99.90
30134;DHT22;16946;49.984;10.672;2023-02-27T01:34:48;-2.30;99.90
30134;DHT22;16946;49.984;10.672;2023-02-27T01:35:19;-2.30;99.90
30134;DHT22;16946;49.984;10.672;2023-02-27T01:35:49;-2.30;99.90
30134;DHT22;16946;49.984;10.672;2023-02-27T01:36:20;-2.30;99.90
30134;DHT22;16946;49.984;10.672;2023-02-27T01:36:50;-2.30;99.90
30134;DHT22;16946;49.984;10.672;2023-02-27T01:37:21;-2.30;99.90
30134;DHT22;16946;49.984;10.672;2023-02-27T01:37:51;-2.30;99.90
30134;DHT22;16946;49.984;10.672;2023-02-27T01:38:22;-2.30;99.90
30134;DHT22;16946;49.984;10.672;2023-02-27T01:38:52;-2.30;99.90
30134;DHT22;16946;49.984;10.672;2023-02-27T01:39:23;-2.30;99.90
30134;DHT22;16946;49.984;10.672;2023-02-27T01:39:55;-2.30;99.90
30134;DHT22;16946;49.984;10.672;2023-02-27T01:40:26;-2.30;99.90
30134;DHT22;16946;49.984;10.672;2023-02-27T01:40:56;-2.30;99.90
30134;DHT22;16946;49.984;10.672;2023-02-27T01:41:27;-2.20;99.90
30134;DHT22;16946;49.984;10.672;2023-02-27T01:41:59;-2.30;99.90
30134;DHT22;16946;49.984;10.672;2023-02-27T01:42:30;-2.30;99.90
30134;DHT22;16946;49.984;10.672;2023-02-27T01:43:00;-2.30;99.90
30134;DHT22;16946;49.984;10.672;2023-02-27T01:43:31;-2.30;99.90
30134;DHT22;16946;49.984;10.672;2023-02-27T01:44:05;-2.30;99.90
30134;DHT22;16946;49.984;10.672;2023-02-27T01:45:34;-2.30;99.90
30134;DHT22;16946;49.984;10.672;2023-02-27T01:46:04;-2.30;99.90
30134;DHT22;16946;49.984;10.672;2023-02-27T01:46:35;-2.30;99.90
30134;DHT22;16946;49.984;10.672;2023-02-27T01:47:05;-2.30;99.90
30134;DHT22;16946;49.984;10.672;2023-02-27T01:47:40;-2.20;99.90
30134;DHT22;16946;49.984;10.672;2023-02-27T01:48:21;-2.20;99.90
30134;DHT22;16946;49.984;10.672;2023-02-27T01:48:57;-2.20;99.90
30134;DHT22;16946;49.984;10.672;2023-02-27T01:49:33;-2.20;99.90
30134;DHT22;16946;49.984;10.672;2023-02-27T01:50:04;-2.10;99.90
30134;DHT22;16946;49.984;10.672;2023-02-27T01:50:37;-2.10;99.90
30134;DHT22;16946;49.984;10.672;2023-02-27T01:51:17;-2.10;99.90
30134;DHT22;16946;49.984;10.672;2023-02-27T01:51:55;-2.10;99.90
30134;DHT22;16946;49.984;10.672;2023-02-27T01:52:33;-2.10;99.90
30134;DHT22;16946;49.984;10.672;2023-02-27T01:53:05;-2.10;99.90
30134;DHT22;16946;49.984;10.672;2023-02-27T01:53:38;-2.10;99.90
30134;DHT22;16946;49.984;10.672;2023-02-27T01:54:09;-2.00;99.90
30134;DHT22;16946;49.984;10.672;2023-02-27T01:54:41;-2.00;99.90
30134;DHT22;16946;49.984;10.672;2023-02-27T01:55:13;-1.90;99.90
30134;DHT22;16946;49.984;10.672;2023-02-27T01:55:45;-1.90;99.90
30134;DHT22;16946;49.984;10.672;2023-02-27T01:56:20;-1.80;99.90
30134;DHT22;16946;49.984;10.672;2023-02-27T01:56:51;-1.80;99.90
30134;DHT22;16946;49.984;10.672;2023-02-27T01:57:21;-1.80;99.90
30134;DHT22;16946;49.984;10.672;2023-02-27T01:57:52;-1.80;99.90
30134;DHT22;16946;49.984;10.672;2023-02-27T01:58:24;-1.90;99.90
30134;DHT22;16946;49.984;10.672;2023-02-27T01:58:59;-1.90;99.90
30134;DHT22;16946;49.984;10.672;2023-02-27T01:59:30;-1.90;99.90
30134;DHT22;16946;49.984;10.672;2023-02-27T02:00:01;-1.90;99.90
30134;DHT22;16946;49.984;10.672;2023-02-27T02:00:33;-1.90;99.90
30134;DHT22;16946;49.984;10.672;2023-02-27T02:01:04;-1.90;99.90
30134;DHT22;16946;49.984;10.672;2023-02-27T02:01:35;-1.90;99.90
30134;DHT22;16946;49.984;10.672;2023-02-27T02:02:11;-1.90;99.90
30134;DHT22;16946;49.984;10.672;2023-02-27T02:03:10;-2.00;99.90
30134;DHT22;16946;49.984;10.672;2023-02-27T02:03:48;-2.00;99.90
30134;DHT22;16946;49.984;10.672;2023-02-27T02:04:27;-2.00;99.90
30134;DHT22;16946;49.984;10.672;2023-02-27T02:04:59;-2.10;99.90
30134;DHT22;16946;49.984;10.672;2023-02-27T02:05:30;-2.10;99.90
30134;DHT22;16946;49.984;10.672;2023-02-27T02:06:02;-2.10;99.90
30134;DHT22;16946;49.984;10.672;2023-02-27T02:06:37;-2.10;99.90
30134;DHT22;16946;49.984;10.672;2023-02-27T02:07:13;-2.10;99.90
30134;DHT22;16946;49.984;10.672;2023-02-27T02:07:44;-2.00;99.90
30134;DHT22;16946;49.984;10.672;2023-02-27T02:08:19;-2.00;99.90
30134;DHT22;16946;49.984;10.672;2023-02-27T02:08:52;-1.90;99.90
30134;DHT22;16946;49.984;10.672;2023-02-27T02:09:24;-1.90;99.90
30134;DHT22;16946;49.984;10.672;2023-02-27T02:09:57;-1.90;99.90
30134;DHT22;16946;49.984;10.672;2023-02-27T02:10:29;-1.90;99.90
30134;DHT22;16946;49.984;10.672;2023-02-27T02:11:00;-1.90;99.90
30134;DHT22;16946;49.984;10.672;2023-02-27T02:11:31;-2.00;99.90
30134;DHT22;16946;49.984;10.672;2023-02-27T02:12:02;-2.00;99.90
30134;DHT22;16946;49.984;10.672;2023-02-27T02:12:36;-2.00;99.90
30134;DHT22;16946;49.984;10.672;2023-02-27T02:13:08;-2.00;99.90
30134;DHT22;16946;49.984;10.672;2023-02-27T02:13:40;-2.00;99.90
30134;DHT22;16946;49.984;10.672;2023-02-27T02:14:11;-2.00;99.90
30134;DHT22;16946;49.984;10.672;2023-02-27T02:14:42;-2.00;99.90
30134;DHT22;16946;49.984;10.672;2023-02-27T02:15:12;-2.10;99.90
30134;DHT22;16946;49.984;10.672;2023-02-27T02:15:50;-2.10;99.90
30134;DHT22;16946;49.984;10.672;2023-02-27T02:16:51;-2.10;99.90
30134;DHT22;16946;49.984;10.672;2023-02-27T02:17:36;-2.10;99.90
30134;DHT22;16946;49.984;10.672;2023-02-27T02:18:19;-2.10;99.90
30134;DHT22;16946;49.984;10.672;2023-02-27T02:19:19;-2.10;99.90
30134;DHT22;16946;49.984;10.672;2023-02-27T02:24:55;-2.10;99.90
30134;DHT22;16946;49.984;10.672;2023-02-27T02:26:18;-2.10;99.90
30134;DHT22;16946;49.984;10.672;2023-02-27T02:27:01;-2.00;99.90
30134;DHT22;16946;49.984;10.672;2023-02-27T02:33:08;-2.20;99.90
30134;DHT22;16946;49.984;10.672;2023-02-27T02:34:52;-2.20;99.90
30134;DHT22;16946;49.984;10.672;2023-02-27T02:39:44;-2.40;99.90
30134;DHT22;16946;49.984;10.672;2023-02-27T02:40:38;-2.40;99.90
30134;DHT22;16946;49.984;10.672;2023-02-27T02:43:42;-2.50;99.90
30134;DHT22;16946;49.984;10.672;2023-02-27T02:45:09;-2.60;99.90
30134;DHT22;16946;49.984;10.672;2023-02-27T02:46:02;-2.60;99.90
30134;DHT22;16946;49.984;10.672;2023-02-27T02:47:30;-2.60;99.90
30134;DHT22;16946;49.984;10.672;2023-02-27T02:48:43;-2.70;99.90
30134;DHT22;16946;49.984;10.672;2023-02-27T02:49:20;-2.70;99.90
30134;DHT22;16946;49.984;10.672;2023-02-27T02:50:25;-2.70;99.90
30134;DHT22;16946;49.984;10.672;2023-02-27T02:51:21;-2.70;99.90
30134;DHT22;16946;49.984;10.672;2023-02-27T02:52:26;-2.70;99.90
30134;DHT22;16946;49.984;10.672;2023-02-27T02:53:10;-2.80;99.90
30134;DHT22;16946;49.984;10.672;2023-02-27T02:54:36;-2.70;99.90
30134;DHT22;16946;49.984;10.672;2023-02-27T02:55:33;-2.70;99.90
30134;DHT22;16946;49.984;10.672;2023-02-27T02:57:03;-2.70;99.90
30134;DHT22;16946;49.984;10.672;2023-02-27T02:57:48;-2.70;99.90
30134;DHT22;16946;49.984;10.672;2023-02-27T02:58:45;-2.70;99.90
30134;DHT22;16946;49.984;10.672;2023-02-27T02:59:38;-2.70;99.90
30134;DHT22;16946;49.984;10.672;2023-02-27T03:00:19;-2.70;99.90
30134;DHT22;16946;49.984;10.672;2023-02-27T03:01:16;-2.80;99.90
30134;DHT22;16946;49.984;10.672;2023-02-27T03:01:52;-2.80;99.90
30134;DHT22;16946;49.984;10.672;2023-02-27T03:02:30;-2.90;99.90
30134;DHT22;16946;49.984;10.672;2023-02-27T03:03:18;-2.90;99.90
30134;DHT22;16946;49.984;10.672;2023-02-27T03:03:55;-2.90;99.90
30134;DHT22;16946;49.984;10.672;2023-02-27T03:05:13;-2.90;99.90
30134;DHT22;16946;49.984;10.672;2023-02-27T03:05:58;-2.80;99.90
30134;DHT22;16946;49.984;10.672;2023-02-27T03:06:33;-2.80;99.90
30134;DHT22;16946;49.984;10.672;2023-02-27T03:07:29;-2.80;99.90
30134;DHT22;16946;49.984;10.672;2023-02-27T03:08:12;-2.80;99.90
30134;DHT22;16946;49.984;10.672;2023-02-27T03:08:54;-2.70;99.90
30134;DHT22;16946;49.984;10.672;2023-02-27T03:09:52;-2.70;99.90
30134;DHT22;16946;49.984;10.672;2023-02-27T03:10:30;-2.70;99.90
30134;DHT22;16946;49.984;10.672;2023-02-27T03:11:03;-2.70;99.90
30134;DHT22;16946;49.984;10.672;2023-02-27T03:11:38;-2.70;99.90
30134;DHT22;16946;49.984;10.672;2023-02-27T03:12:13;-2.70;99.90
30134;DHT22;16946;49.984;10.672;2023-02-27T03:12:49;-2.70;99.90
30134;DHT22;16946;49.984;10.672;2023-02-27T03:13:39;-2.60;99.90
30134;DHT22;16946;49.984;10.672;2023-02-27T03:14:42;-2.60;99.90
30134;DHT22;16946;49.984;10.672;2023-02-27T03:15:18;-2.50;99.90
30134;DHT22;16946;49.984;10.672;2023-02-27T03:16:00;-2.50;99.90
30134;DHT22;16946;49.984;10.672;2023-02-27T03:16:36;-2.50;99.90
30134;DHT22;16946;49.984;10.672;2023-02-27T03:17:16;-2.50;99.90
30134;DHT22;16946;49.984;10.672;2023-02-27T03:18:01;-2.50;99.90
30134;DHT22;16946;49.984;10.672;2023-02-27T03:18:48;-2.50;99.90
30134;DHT22;16946;49.984;10.672;2023-02-27T03:19:48;-2.40;99.90
30134;DHT22;16946;49.984;10.672;2023-02-27T03:20:24;-2.40;99.90
30134;DHT22;16946;49.984;10.672;2023-02-27T03:21:03;-2.40;99.90
30134;DHT22;16946;49.984;10.672;2023-02-27T03:21:40;-2.40;99.90
30134;DHT22;16946;49.984;10.672;2023-02-27T03:22:17;-2.50;99.90
30134;DHT22;16946;49.984;10.672;2023-02-27T03:22:53;-2.50;99.90
30134;DHT22;16946;49.984;10.672;2023-02-27T03:23:39;-2.50;99.90
30134;DHT22;16946;49.984;10.672;2023-02-27T03:24:17;-2.50;99.90
30134;DHT22;16946;49.984;10.672;2023-02-27T03:24:52;-2.50;99.90
30134;DHT22;16946;49.984;10.672;2023-02-27T03:25:25;-2.50;99.90
30134;DHT22;16946;49.984;10.672;2023-02-27T03:25:58;-2.50;99.90
30134;DHT22;16946;49.984;10.672;2023-02-27T03:26:34;-2.40;99.90
30134;DHT22;16946;49.984;10.672;2023-02-27T03:27:07;-2.40;99.90
30134;DHT22;16946;49.984;10.672;2023-02-27T03:27:43;-2.50;99.90
30134;DHT22;16946;49.984;10.672;2023-02-27T03:28:22;-2.40;99.90
30134;DHT22;16946;49.984;10.672;2023-02-27T03:29:03;-2.40;99.90
30134;DHT22;16946;49.984;10.672;2023-02-27T03:29:43;-2.40;99.90
30134;DHT22;16946;49.984;10.672;2023-02-27T03:30:25;-2.40;99.90
30134;DHT22;16946;49.984;10.672;2023-02-27T03:31:07;-2.40;99.90
30134;DHT22;16946;49.984;10.672;2023-02-27T03:31:55;-2.30;99.90
30134;DHT22;16946;49.984;10.672;2023-02-27T03:32:33;-2.30;99.90
30134;DHT22;16946;49.984;10.672;2023-02-27T03:33:26;-2.30;99.90
30134;DHT22;16946;49.984;10.672;2023-02-27T03:34:02;-2.30;99.90
30134;DHT22;16946;49.984;10.672;2023-02-27T03:34:37;-2.40;99.90
30134;DHT22;16946;49.984;10.672;2023-02-27T03:35:09;-2.40;99.90
30134;DHT22;16946;49.984;10.672;2023-02-27T03:36:11;-2.40;99.90
30134;DHT22;16946;49.984;10.672;2023-02-27T03:36:54;-2.40;99.90
30134;DHT22;16946;49.984;10.672;2023-02-27T03:38:19;-2.50;99.90
30134;DHT22;16946;49.984;10.672;2023-02-27T03:39:01;-2.40;99.90
30134;DHT22;16946;49.984;10.672;2023-02-27T03:39:44;-2.40;99.90
30134;DHT22;16946;49.984;10.672;2023-02-27T03:46:04;-2.30;99.90
30134;DHT22;16946;49.984;10.672;2023-02-27T03:46:36;-2.30;99.90
30134;DHT22;16946;49.984;10.672;2023-02-27T03:47:07;-2.20;99.90
30134;DHT22;16946;49.984;10.672;2023-02-27T03:47:38;-2.20;99.90
30134;DHT22;16946;49.984;10.672;2023-02-27T03:48:08;-2.20;99.90
30134;DHT22;16946;49.984;10.672;2023-02-27T03:48:39;-2.20;99.90
30134;DHT22;16946;49.984;10.672;2023-02-27T03:49:13;-2.20;99.90
30134;DHT22;16946;49.984;10.672;2023-02-27T03:49:44;-2.20;99.90
30134;DHT22;16946;49.984;10.672;2023-02-27T03:50:15;-2.20;99.90
30134;DHT22;16946;49.984;10.672;2023-02-27T03:50:46;-2.10;99.90
30134;DHT22;16946;49.984;10.672;2023-02-27T03:51:19;-2.10;99.90
30134;DHT22;16946;49.984;10.672;2023-02-27T03:51:50;-2.10;99.90
30134;DHT22;16946;49.984;10.672;2023-02-27T03:52:21;-2.10;99.90
30134;DHT22;16946;49.984;10.672;2023-02-27T03:52:53;-2.10;99.90
30134;DHT22;16946;49.984;10.672;2023-02-27T03:53:42;-2.10;99.90
30134;DHT22;16946;49.984;10.672;2023-02-27T03:54:19;-2.10;99.90
30134;DHT22;16946;49.984;10.672;2023-02-27T03:55:01;-2.20;99.90
30134;DHT22;16946;49.984;10.672;2023-02-27T03:55:35;-2.10;99.90
30134;DHT22;16946;49.984;10.672;2023-02-27T03:56:08;-2.20;99.90
30134;DHT22;16946;49.984;10.672;2023-02-27T03:56:43;-2.20;99.90
30134;DHT22;16946;49.984;10.672;2023-02-27T03:57:14;-2.20;99.90
30134;DHT22;16946;49.984;10.672;2023-02-27T03:57:47;-2.20;99.90
30134;DHT22;16946;49.984;10.672;2023-02-27T03:58:18;-2.20;99.90
30134;DHT22;16946;49.984;10.672;2023-02-27T03:58:48;-2.20;99.90
30134;DHT22;16946;49.984;10.672;2023-02-27T03:59:21;-2.20;99.90
30134;DHT22;16946;49.984;10.672;2023-02-27T03:59:52;-2.20;99.90
30134;DHT22;16946;49.984;10.672;2023-02-27T04:00:24;-2.20;99.90
30134;DHT22;16946;49.984;10.672;2023-02-27T04:00:55;-2.30;99.90
30134;DHT22;16946;49.984;10.672;2023-02-27T04:01:26;-2.30;99.90
30134;DHT22;16946;49.984;10.672;2023-02-27T04:01:58;-2.30;99.90
30134;DHT22;16946;49.984;10.672;2023-02-27T04:02:29;-2.30;99.90
30134;DHT22;16946;49.984;10.672;2023-02-27T04:03:00;-2.30;99.90